createdAt,value
2023-12-16T00:00:40.451Z,0
2023-12-16T00:01:42.472Z,0
2023-12-16T00:02:40.424Z,0
2023-12-16T00:03:40.481Z,0
2023-12-16T00:04:40.446Z,0
2023-12-16T00:05:40.520Z,0
2023-12-16T00:06:40.428Z,0
2023-12-16T00:07:40.643Z,0
2023-12-16T00:08:40.429Z,0
2023-12-16T00:09:40.426Z,0
2023-12-16T00:10:40.464Z,0
2023-12-16T00:11:40.413Z,0
2023-12-16T00:12:40.435Z,0
2023-12-16T00:13:40.418Z,0
2023-12-16T00:14:40.409Z,0
2023-12-16T00:15:40.435Z,0
2023-12-16T00:16:40.400Z,0
2023-12-16T00:17:40.882Z,0
2023-12-16T00:18:40.539Z,0
2023-12-16T00:19:40.533Z,0
2023-12-16T00:20:40.416Z,0
2023-12-16T00:21:40.407Z,0
2023-12-16T00:22:40.436Z,0
2023-12-16T00:23:40.416Z,0
2023-12-16T00:24:40.422Z,0
2023-12-16T00:25:40.443Z,0
2023-12-16T00:26:40.410Z,0
2023-12-16T00:27:40.809Z,0
2023-12-16T00:28:40.423Z,0
2023-12-16T00:29:40.411Z,0
2023-12-16T00:30:40.438Z,0
2023-12-16T00:31:40.484Z,0
2023-12-16T00:32:40.496Z,0
2023-12-16T00:33:40.538Z,0
2023-12-16T00:34:40.409Z,0
2023-12-16T00:35:40.420Z,0
2023-12-16T00:36:40.423Z,0
2023-12-16T00:37:40.719Z,0
2023-12-16T00:38:40.438Z,0
2023-12-16T00:39:40.440Z,0
2023-12-16T00:40:40.431Z,0
2023-12-16T00:41:40.436Z,0
2023-12-16T00:42:40.433Z,0
2023-12-16T00:43:40.441Z,0
2023-12-16T00:44:40.414Z,0
2023-12-16T00:45:40.414Z,0
2023-12-16T00:46:40.417Z,0
2023-12-16T00:47:40.832Z,0
2023-12-16T00:48:40.522Z,0
2023-12-16T00:49:40.443Z,0
2023-12-16T00:50:40.414Z,0
2023-12-16T00:51:40.416Z,0
2023-12-16T00:52:40.435Z,0
2023-12-16T00:53:40.431Z,0
2023-12-16T00:54:40.427Z,0
2023-12-16T00:55:40.432Z,0
2023-12-16T00:56:40.444Z,0
2023-12-16T00:57:40.772Z,0
2023-12-16T00:58:40.420Z,0
2023-12-16T00:59:40.425Z,0
2023-12-16T01:00:40.430Z,0
2023-12-16T01:01:40.532Z,0
2023-12-16T01:02:40.440Z,0
2023-12-16T01:03:40.485Z,0
2023-12-16T01:04:40.511Z,0
2023-12-16T01:05:40.551Z,0
2023-12-16T01:06:40.421Z,0
2023-12-16T01:07:40.710Z,0
2023-12-16T01:08:40.430Z,0
2023-12-16T01:09:40.439Z,0
2023-12-16T01:10:40.432Z,0
2023-12-16T01:11:40.422Z,0
2023-12-16T01:12:40.436Z,0
2023-12-16T01:13:40.419Z,0
2023-12-16T01:14:40.420Z,0
2023-12-16T01:15:40.422Z,0
2023-12-16T01:16:40.413Z,0
2023-12-16T01:17:40.836Z,0
2023-12-16T01:18:40.539Z,0
2023-12-16T01:19:40.514Z,0
2023-12-16T01:20:40.419Z,0
2023-12-16T01:21:40.413Z,0
2023-12-16T01:22:40.441Z,0
2023-12-16T01:23:40.421Z,0
2023-12-16T01:24:40.426Z,0
2023-12-16T01:25:40.429Z,0
2023-12-16T01:26:40.417Z,0
2023-12-16T01:27:40.727Z,0
2023-12-16T01:28:40.421Z,0
2023-12-16T01:29:40.421Z,0
2023-12-16T01:30:40.427Z,0
2023-12-16T01:31:40.442Z,0
2023-12-16T01:32:40.445Z,0
2023-12-16T01:33:40.449Z,0
2023-12-16T01:34:40.495Z,0
2023-12-16T01:35:40.409Z,0
2023-12-16T01:36:40.427Z,0
2023-12-16T01:37:40.714Z,0
2023-12-16T01:38:40.403Z,0
2023-12-16T01:39:40.424Z,0
2023-12-16T01:40:40.480Z,0
2023-12-16T01:41:40.417Z,0
2023-12-16T01:42:40.429Z,0
2023-12-16T01:43:40.399Z,0
2023-12-16T01:44:40.410Z,0
2023-12-16T01:45:40.445Z,0
2023-12-16T01:46:40.510Z,0
2023-12-16T01:47:40.938Z,0
2023-12-16T01:48:40.481Z,0
2023-12-16T01:49:40.523Z,0
2023-12-16T01:50:40.414Z,0
2023-12-16T01:51:40.435Z,0
2023-12-16T01:52:40.435Z,0
2023-12-16T01:53:40.426Z,0
2023-12-16T01:54:40.425Z,0
2023-12-16T01:55:40.430Z,0
2023-12-16T01:56:40.418Z,0
2023-12-16T01:57:40.781Z,0
2023-12-16T01:58:40.420Z,0
2023-12-16T01:59:40.429Z,0
2023-12-16T02:00:40.470Z,0
2023-12-16T02:01:40.480Z,0
2023-12-16T02:02:40.431Z,0
2023-12-16T02:03:40.436Z,0
2023-12-16T02:04:40.488Z,0
2023-12-16T02:05:40.413Z,0
2023-12-16T02:06:40.516Z,0
2023-12-16T02:07:40.853Z,0
2023-12-16T02:08:40.422Z,0
2023-12-16T02:09:40.427Z,0
2023-12-16T02:10:40.426Z,0
2023-12-16T02:11:40.418Z,0
2023-12-16T02:12:40.454Z,0
2023-12-16T02:13:40.421Z,0
2023-12-16T02:14:40.422Z,0
2023-12-16T02:15:40.424Z,0
2023-12-16T02:16:40.423Z,0
2023-12-16T02:17:40.693Z,0
2023-12-16T02:18:40.484Z,0
2023-12-16T02:19:40.545Z,0
2023-12-16T02:20:40.416Z,0
2023-12-16T02:21:40.427Z,0
2023-12-16T02:22:40.434Z,0
2023-12-16T02:23:40.425Z,0
2023-12-16T02:24:40.423Z,0
2023-12-16T02:25:40.445Z,0
2023-12-16T02:26:40.429Z,0
2023-12-16T02:27:40.635Z,0
2023-12-16T02:28:40.425Z,0
2023-12-16T02:29:40.419Z,0
2023-12-16T02:30:40.523Z,0
2023-12-16T02:31:40.505Z,0
2023-12-16T02:32:40.473Z,0
2023-12-16T02:33:40.495Z,0
2023-12-16T02:34:40.506Z,0
2023-12-16T02:35:40.419Z,0
2023-12-16T02:36:40.436Z,0
2023-12-16T02:37:40.653Z,0
2023-12-16T02:38:40.428Z,0
2023-12-16T02:39:40.441Z,0
2023-12-16T02:40:40.458Z,0
2023-12-16T02:41:40.463Z,0
2023-12-16T02:42:40.444Z,0
2023-12-16T02:43:40.428Z,0
2023-12-16T02:44:40.425Z,0
2023-12-16T02:45:40.421Z,0
2023-12-16T02:46:40.444Z,0
2023-12-16T02:47:40.874Z,0
2023-12-16T02:48:40.463Z,0
2023-12-16T02:49:40.519Z,0
2023-12-16T02:50:40.426Z,0
2023-12-16T02:51:40.427Z,0
2023-12-16T02:52:40.435Z,0
2023-12-16T02:53:40.416Z,0
2023-12-16T02:54:40.429Z,0
2023-12-16T02:55:40.454Z,0
2023-12-16T02:56:40.419Z,0
2023-12-16T02:57:40.669Z,0
2023-12-16T02:58:40.419Z,0
2023-12-16T02:59:40.444Z,0
2023-12-16T03:00:40.439Z,0
2023-12-16T03:01:40.491Z,0
2023-12-16T03:02:40.447Z,0
2023-12-16T03:03:40.422Z,0
2023-12-16T03:04:40.416Z,0
2023-12-16T03:05:40.468Z,0
2023-12-16T03:06:40.417Z,0
2023-12-16T03:07:40.807Z,0
2023-12-16T03:08:40.421Z,0
2023-12-16T03:09:40.420Z,0
2023-12-16T03:10:40.440Z,0
2023-12-16T03:11:40.422Z,0
2023-12-16T03:12:40.440Z,0
2023-12-16T03:13:40.423Z,0
2023-12-16T03:14:40.432Z,0
2023-12-16T03:15:40.416Z,0
2023-12-16T03:16:40.414Z,0
2023-12-16T03:17:40.754Z,0
2023-12-16T03:18:40.440Z,0
2023-12-16T03:19:40.487Z,0
2023-12-16T03:20:40.417Z,0
2023-12-16T03:21:40.417Z,0
2023-12-16T03:22:40.431Z,0
2023-12-16T03:23:40.425Z,0
2023-12-16T03:24:40.436Z,0
2023-12-16T03:25:40.431Z,0
2023-12-16T03:26:40.424Z,0
2023-12-16T03:27:40.747Z,0
2023-12-16T03:28:40.431Z,0
2023-12-16T03:29:40.434Z,0
2023-12-16T03:30:40.467Z,0
2023-12-16T03:31:40.490Z,0
2023-12-16T03:32:40.616Z,0
2023-12-16T03:33:40.560Z,0
2023-12-16T03:34:40.572Z,0
2023-12-16T03:35:40.429Z,0
2023-12-16T03:36:40.434Z,0
2023-12-16T03:37:40.620Z,0
2023-12-16T03:38:40.420Z,0
2023-12-16T03:39:40.427Z,0
2023-12-16T03:40:40.552Z,0
2023-12-16T03:41:40.421Z,0
2023-12-16T03:42:40.438Z,0
2023-12-16T03:43:40.421Z,0
2023-12-16T03:44:40.421Z,0
2023-12-16T03:45:40.423Z,0
2023-12-16T03:46:40.425Z,0
2023-12-16T03:47:40.877Z,0
2023-12-16T03:48:40.596Z,0
2023-12-16T03:49:40.540Z,0
2023-12-16T03:50:40.424Z,0
2023-12-16T03:51:40.438Z,0
2023-12-16T03:52:40.446Z,0
2023-12-16T03:53:40.429Z,0
2023-12-16T03:54:40.425Z,0
2023-12-16T03:55:40.445Z,0
2023-12-16T03:56:40.431Z,0
2023-12-16T03:57:40.786Z,0
2023-12-16T03:58:40.426Z,0
2023-12-16T03:59:40.445Z,0
2023-12-16T04:00:40.451Z,0
2023-12-16T04:01:40.488Z,0
2023-12-16T04:02:40.476Z,0
2023-12-16T04:03:40.432Z,0
2023-12-16T04:04:40.425Z,0
2023-12-16T04:05:40.467Z,0
2023-12-16T04:06:40.428Z,0
2023-12-16T04:07:40.740Z,0
2023-12-16T04:08:40.418Z,0
2023-12-16T04:09:40.431Z,0
2023-12-16T04:10:40.442Z,0
2023-12-16T04:11:40.425Z,0
2023-12-16T04:12:40.452Z,0
2023-12-16T04:13:40.420Z,0
2023-12-16T04:14:40.431Z,0
2023-12-16T04:15:40.434Z,0
2023-12-16T04:16:40.424Z,0
2023-12-16T04:17:40.867Z,0
2023-12-16T04:18:40.517Z,0
2023-12-16T04:19:40.456Z,0
2023-12-16T04:20:40.421Z,0
2023-12-16T04:21:40.423Z,0
2023-12-16T04:22:40.429Z,0
2023-12-16T04:23:40.437Z,0
2023-12-16T04:24:40.428Z,0
2023-12-16T04:25:40.460Z,0
2023-12-16T04:26:40.418Z,0
2023-12-16T04:27:40.823Z,0
2023-12-16T04:28:40.422Z,0
2023-12-16T04:29:40.425Z,0
2023-12-16T04:30:40.463Z,0
2023-12-16T04:31:40.453Z,0
2023-12-16T04:32:40.460Z,0
2023-12-16T04:33:40.523Z,0
2023-12-16T04:34:40.446Z,0
2023-12-16T04:35:40.425Z,0
2023-12-16T04:36:40.414Z,0
2023-12-16T04:37:40.913Z,0
2023-12-16T04:38:40.415Z,0
2023-12-16T04:39:40.428Z,0
2023-12-16T04:40:40.450Z,0
2023-12-16T04:41:40.421Z,0
2023-12-16T04:42:40.431Z,0
2023-12-16T04:43:40.422Z,0
2023-12-16T04:44:40.419Z,0
2023-12-16T04:45:40.410Z,0
2023-12-16T04:46:40.439Z,0
2023-12-16T04:47:40.873Z,0
2023-12-16T04:48:40.606Z,0
2023-12-16T04:49:40.429Z,0
2023-12-16T04:50:40.417Z,0
2023-12-16T04:51:40.442Z,0
2023-12-16T04:52:40.429Z,0
2023-12-16T04:53:40.420Z,0
2023-12-16T04:54:40.416Z,0
2023-12-16T04:55:40.438Z,0
2023-12-16T04:56:40.407Z,0
2023-12-16T04:57:40.633Z,0
2023-12-16T04:58:40.423Z,0
2023-12-16T04:59:40.416Z,0
2023-12-16T05:00:40.419Z,0
2023-12-16T05:01:40.531Z,0
2023-12-16T05:02:40.435Z,0
2023-12-16T05:03:40.479Z,0
2023-12-16T05:04:40.457Z,0
2023-12-16T05:05:40.474Z,0
2023-12-16T05:06:40.418Z,0
2023-12-16T05:07:40.904Z,0
2023-12-16T05:08:40.427Z,0
2023-12-16T05:09:40.430Z,0
2023-12-16T05:10:40.428Z,0
2023-12-16T05:11:40.424Z,0
2023-12-16T05:12:40.440Z,0
2023-12-16T05:13:40.430Z,0
2023-12-16T05:14:40.424Z,0
2023-12-16T05:15:40.416Z,0
2023-12-16T05:16:40.419Z,0
2023-12-16T05:17:40.724Z,0
2023-12-16T05:18:40.525Z,0
2023-12-16T05:19:40.494Z,0
2023-12-16T05:20:40.436Z,0
2023-12-16T05:21:40.433Z,0
2023-12-16T05:22:40.446Z,0
2023-12-16T05:23:40.456Z,0
2023-12-16T05:24:40.428Z,0
2023-12-16T05:25:40.494Z,0
2023-12-16T05:26:40.422Z,0
2023-12-16T05:27:40.711Z,0
2023-12-16T05:28:40.413Z,0
2023-12-16T05:29:40.421Z,0
2023-12-16T05:30:40.479Z,0
2023-12-16T05:31:40.494Z,0
2023-12-16T05:32:40.520Z,0
2023-12-16T05:33:40.496Z,0
2023-12-16T05:34:40.537Z,0
2023-12-16T05:35:40.466Z,0
2023-12-16T05:36:40.426Z,0
2023-12-16T05:37:40.835Z,0
2023-12-16T05:38:40.427Z,0
2023-12-16T05:39:40.436Z,0
2023-12-16T05:40:40.481Z,0
2023-12-16T05:41:40.417Z,0
2023-12-16T05:42:40.438Z,0
2023-12-16T05:43:40.428Z,0
2023-12-16T05:44:40.420Z,0
2023-12-16T05:45:40.431Z,0
2023-12-16T05:46:40.417Z,0
2023-12-16T05:47:40.790Z,0
2023-12-16T05:48:40.453Z,0
2023-12-16T05:49:40.503Z,0
2023-12-16T05:50:40.407Z,0
2023-12-16T05:51:40.418Z,0
2023-12-16T05:52:40.428Z,0
2023-12-16T05:53:40.413Z,0
2023-12-16T05:54:40.434Z,0
2023-12-16T05:55:40.440Z,0
2023-12-16T05:56:40.421Z,0
2023-12-16T05:57:40.767Z,0
2023-12-16T05:58:40.495Z,0
2023-12-16T05:59:40.419Z,0
2023-12-16T06:00:40.440Z,0
2023-12-16T06:01:40.423Z,0
2023-12-16T06:02:40.538Z,0
2023-12-16T06:03:40.427Z,0
2023-12-16T06:04:40.444Z,0
2023-12-16T06:05:40.440Z,0
2023-12-16T06:06:40.411Z,0
2023-12-16T06:07:40.662Z,0
2023-12-16T06:08:40.415Z,0
2023-12-16T06:09:40.420Z,0
2023-12-16T06:10:40.477Z,0
2023-12-16T06:11:40.414Z,0
2023-12-16T06:12:40.433Z,0
2023-12-16T06:13:40.410Z,0
2023-12-16T06:14:40.423Z,0
2023-12-16T06:15:40.455Z,0
2023-12-16T06:16:40.463Z,0
2023-12-16T06:17:41.378Z,0
2023-12-16T06:18:40.473Z,0
2023-12-16T06:19:40.527Z,0
2023-12-16T06:20:40.422Z,0
2023-12-16T06:21:40.434Z,0
2023-12-16T06:22:40.428Z,0
2023-12-16T06:23:40.420Z,0
2023-12-16T06:24:40.424Z,0
2023-12-16T06:25:40.440Z,0
2023-12-16T06:26:40.407Z,0
2023-12-16T06:27:40.590Z,0
2023-12-16T06:28:40.411Z,0
2023-12-16T06:29:40.423Z,0
2023-12-16T06:30:40.516Z,0
2023-12-16T06:31:40.452Z,1
2023-12-16T06:32:40.462Z,1
2023-12-16T06:33:40.447Z,1
2023-12-16T06:34:40.438Z,3
2023-12-16T06:35:40.402Z,3
2023-12-16T06:36:40.403Z,5
2023-12-16T06:37:40.730Z,5
2023-12-16T06:38:40.415Z,7
2023-12-16T06:39:40.410Z,9
2023-12-16T06:40:40.461Z,12
2023-12-16T06:41:40.416Z,14
2023-12-16T06:42:40.428Z,14
2023-12-16T06:43:40.416Z,16
2023-12-16T06:44:40.437Z,18
2023-12-16T06:45:40.418Z,18
2023-12-16T06:46:40.453Z,20
2023-12-16T06:47:40.724Z,22
2023-12-16T06:48:40.483Z,25
2023-12-16T06:49:40.485Z,29
2023-12-16T06:50:40.410Z,33
2023-12-16T06:51:40.429Z,35
2023-12-16T06:52:40.423Z,36
2023-12-16T06:53:40.416Z,36
2023-12-16T06:54:40.429Z,40
2023-12-16T06:55:40.464Z,44
2023-12-16T06:56:40.430Z,47
2023-12-16T06:57:40.714Z,51
2023-12-16T06:58:40.421Z,57
2023-12-16T06:59:40.421Z,57
2023-12-16T07:00:40.476Z,70
2023-12-16T07:01:40.494Z,77
2023-12-16T07:02:40.429Z,88
2023-12-16T07:03:40.459Z,101
2023-12-16T07:04:40.449Z,114
2023-12-16T07:05:40.450Z,129
2023-12-16T07:06:40.425Z,145
2023-12-16T07:07:40.993Z,160
2023-12-16T07:08:40.431Z,171
2023-12-16T07:09:40.444Z,171
2023-12-16T07:10:40.458Z,176
2023-12-16T07:11:40.438Z,180
2023-12-16T07:12:40.516Z,186
2023-12-16T07:13:40.451Z,186
2023-12-16T07:14:40.426Z,197
2023-12-16T07:15:40.429Z,204
2023-12-16T07:16:40.421Z,217
2023-12-16T07:17:40.750Z,232
2023-12-16T07:18:40.456Z,232
2023-12-16T07:19:40.547Z,261
2023-12-16T07:20:40.436Z,259
2023-12-16T07:21:40.414Z,254
2023-12-16T07:22:40.439Z,246
2023-12-16T07:23:40.421Z,241
2023-12-16T07:24:40.425Z,245
2023-12-16T07:25:40.498Z,261
2023-12-16T07:26:40.427Z,282
2023-12-16T07:27:40.707Z,302
2023-12-16T07:28:40.425Z,324
2023-12-16T07:29:40.422Z,342
2023-12-16T07:30:40.488Z,361
2023-12-16T07:31:40.479Z,383
2023-12-16T07:32:40.525Z,411
2023-12-16T07:33:40.503Z,444
2023-12-16T07:34:40.499Z,473
2023-12-16T07:35:40.411Z,505
2023-12-16T07:36:40.423Z,527
2023-12-16T07:37:40.755Z,554
2023-12-16T07:38:40.426Z,606
2023-12-16T07:39:40.417Z,700
2023-12-16T07:40:40.466Z,766
2023-12-16T07:41:40.416Z,788
2023-12-16T07:42:40.999Z,788
2023-12-16T07:43:40.412Z,757
2023-12-16T07:44:40.433Z,713
2023-12-16T07:45:40.416Z,663
2023-12-16T07:46:40.422Z,606
2023-12-16T07:47:40.798Z,545
2023-12-16T07:48:40.484Z,484
2023-12-16T07:49:40.459Z,418
2023-12-16T07:50:40.428Z,377
2023-12-16T07:51:40.413Z,353
2023-12-16T07:52:40.424Z,340
2023-12-16T07:53:40.417Z,344
2023-12-16T07:54:40.428Z,366
2023-12-16T07:55:40.423Z,390
2023-12-16T07:56:40.421Z,412
2023-12-16T07:57:40.763Z,435
2023-12-16T07:58:40.442Z,464
2023-12-16T07:59:40.424Z,517
2023-12-16T08:00:40.430Z,569
2023-12-16T08:01:40.474Z,611
2023-12-16T08:02:40.428Z,611
2023-12-16T08:03:40.427Z,733
2023-12-16T08:04:40.502Z,834
2023-12-16T08:05:40.422Z,932
2023-12-16T08:06:40.501Z,1015
2023-12-16T08:07:40.682Z,1083
2023-12-16T08:08:40.407Z,1146
2023-12-16T08:09:40.425Z,1238
2023-12-16T08:10:40.456Z,1354
2023-12-16T08:11:40.424Z,1443
2023-12-16T08:12:40.511Z,1513
2023-12-16T08:13:40.418Z,1544
2023-12-16T08:14:40.437Z,1544
2023-12-16T08:15:40.409Z,1610
2023-12-16T08:16:40.414Z,1612
2023-12-16T08:17:41.005Z,1594
2023-12-16T08:18:40.586Z,1551
2023-12-16T08:19:40.507Z,1437
2023-12-16T08:20:40.418Z,1349
2023-12-16T08:21:40.417Z,1295
2023-12-16T08:22:40.516Z,1257
2023-12-16T08:23:40.416Z,1247
2023-12-16T08:24:40.424Z,1266
2023-12-16T08:25:40.433Z,1310
2023-12-16T08:26:40.415Z,1450
2023-12-16T08:27:40.746Z,1559
2023-12-16T08:28:40.428Z,1491
2023-12-16T08:29:40.417Z,1415
2023-12-16T08:30:40.441Z,1386
2023-12-16T08:31:40.472Z,1504
2023-12-16T08:32:40.527Z,1732
2023-12-16T08:33:40.491Z,2027
2023-12-16T08:34:40.513Z,2315
2023-12-16T08:35:40.454Z,2517
2023-12-16T08:36:40.424Z,2626
2023-12-16T08:37:40.774Z,2646
2023-12-16T08:38:40.465Z,2633
2023-12-16T08:39:40.428Z,2633
2023-12-16T08:40:40.474Z,2915
2023-12-16T08:41:40.418Z,3428
2023-12-16T08:42:40.426Z,3428
2023-12-16T08:43:40.425Z,5627
2023-12-16T08:44:40.424Z,9044
2023-12-16T08:45:40.420Z,9026
2023-12-16T08:46:40.426Z,8552
2023-12-16T08:47:40.813Z,11162
2023-12-16T08:48:40.447Z,13536
2023-12-16T08:49:40.506Z,12454
2023-12-16T08:50:40.422Z,10578
2023-12-16T08:51:40.412Z,6266
2023-12-16T08:52:40.502Z,6266
2023-12-16T08:53:40.422Z,10325
2023-12-16T08:54:40.426Z,10325
2023-12-16T08:55:40.471Z,11355
2023-12-16T08:56:40.433Z,15322
2023-12-16T08:57:40.614Z,14115
2023-12-16T08:58:40.415Z,13210
2023-12-16T08:59:40.423Z,13525
2023-12-16T09:00:40.477Z,13147
2023-12-16T09:01:40.486Z,13523
2023-12-16T09:02:40.446Z,14607
2023-12-16T09:03:40.448Z,14802
2023-12-16T09:04:40.432Z,13632
2023-12-16T09:05:40.458Z,14354
2023-12-16T09:06:40.430Z,13444
2023-12-16T09:07:40.814Z,14270
2023-12-16T09:08:40.442Z,13012
2023-12-16T09:09:40.439Z,14741
2023-12-16T09:10:40.477Z,14631
2023-12-16T09:11:40.429Z,14509
2023-12-16T09:12:40.434Z,15311
2023-12-16T09:13:40.513Z,15610
2023-12-16T09:14:40.428Z,15997
2023-12-16T09:15:40.423Z,15331
2023-12-16T09:16:40.453Z,10559
2023-12-16T09:17:40.616Z,10366
2023-12-16T09:18:40.526Z,9367
2023-12-16T09:19:40.527Z,8086
2023-12-16T09:20:40.414Z,6488
2023-12-16T09:21:40.418Z,6488
2023-12-16T09:22:40.434Z,5162
2023-12-16T09:23:40.419Z,4965
2023-12-16T09:24:40.418Z,4829
2023-12-16T09:25:40.476Z,4737
2023-12-16T09:26:40.417Z,4768
2023-12-16T09:27:40.734Z,4976
2023-12-16T09:28:40.491Z,5214
2023-12-16T09:29:40.417Z,5656
2023-12-16T09:30:40.445Z,6561
2023-12-16T09:31:40.465Z,7610
2023-12-16T09:32:40.512Z,7837
2023-12-16T09:33:40.512Z,8095
2023-12-16T09:34:40.475Z,8661
2023-12-16T09:35:40.415Z,8346
2023-12-16T09:36:40.434Z,9603
2023-12-16T09:37:40.745Z,10174
2023-12-16T09:38:40.422Z,10198
2023-12-16T09:39:40.416Z,11602
2023-12-16T09:40:40.461Z,12432
2023-12-16T09:41:40.411Z,11455
2023-12-16T09:42:40.435Z,10581
2023-12-16T09:43:40.419Z,10581
2023-12-16T09:44:40.419Z,17963
2023-12-16T09:45:40.422Z,15722
2023-12-16T09:46:40.452Z,15696
2023-12-16T09:47:40.818Z,17270
2023-12-16T09:48:40.428Z,16939
2023-12-16T09:49:40.577Z,17368
2023-12-16T09:50:40.411Z,17320
2023-12-16T09:51:40.436Z,17475
2023-12-16T09:52:40.429Z,16386
2023-12-16T09:53:40.425Z,17361
2023-12-16T09:54:40.439Z,17473
2023-12-16T09:55:40.490Z,17432
2023-12-16T09:56:40.554Z,17475
2023-12-16T09:57:40.716Z,17687
2023-12-16T09:58:40.417Z,17722
2023-12-16T09:59:40.407Z,18079
2023-12-16T10:00:40.450Z,18161
2023-12-16T10:01:40.497Z,18161
2023-12-16T10:02:40.459Z,18271
2023-12-16T10:03:40.416Z,18826
2023-12-16T10:04:40.413Z,16684
2023-12-16T10:05:40.427Z,16164
2023-12-16T10:06:40.557Z,12331
2023-12-16T10:07:40.741Z,10285
2023-12-16T10:08:40.422Z,9590
2023-12-16T10:09:40.428Z,8624
2023-12-16T10:10:40.450Z,7571
2023-12-16T10:11:40.423Z,6784
2023-12-16T10:12:40.630Z,6195
2023-12-16T10:13:40.422Z,6195
2023-12-16T10:14:40.418Z,6195
2023-12-16T10:15:40.425Z,6195
2023-12-16T10:16:40.453Z,6195
2023-12-16T10:17:40.853Z,6195
2023-12-16T10:18:40.457Z,6195
2023-12-16T10:19:40.468Z,6195
2023-12-16T10:20:40.439Z,17117
2023-12-16T10:21:40.422Z,17209
2023-12-16T10:22:40.447Z,17517
2023-12-16T10:23:40.429Z,17392
2023-12-16T10:24:40.452Z,17392
2023-12-16T10:25:40.481Z,17392
2023-12-16T10:26:40.420Z,17392
2023-12-16T10:27:40.673Z,17392
2023-12-16T10:28:40.420Z,17392
2023-12-16T10:29:47.213Z,17392
2023-12-16T10:30:40.487Z,20013
2023-12-16T10:31:40.489Z,18946
2023-12-16T10:32:40.536Z,18765
2023-12-16T10:33:40.476Z,17867
2023-12-16T10:34:40.500Z,16645
2023-12-16T10:35:40.422Z,14935
2023-12-16T10:36:40.424Z,14546
2023-12-16T10:37:40.730Z,14482
2023-12-16T10:38:40.421Z,14948
2023-12-16T10:39:40.441Z,16981
2023-12-16T10:40:40.495Z,17919
2023-12-16T10:41:40.424Z,18109
2023-12-16T10:42:40.434Z,17091
2023-12-16T10:43:40.456Z,17692
2023-12-16T10:44:40.422Z,17338
2023-12-16T10:45:40.435Z,17103
2023-12-16T10:46:40.441Z,17034
2023-12-16T10:47:40.444Z,16931
2023-12-16T10:48:40.523Z,17010
2023-12-16T10:49:40.436Z,17021
2023-12-16T10:50:41.131Z,17173
2023-12-16T10:51:40.413Z,17397
2023-12-16T10:52:40.425Z,17469
2023-12-16T10:53:40.458Z,17584
2023-12-16T10:54:40.442Z,16962
2023-12-16T10:55:40.496Z,13947
2023-12-16T10:56:41.450Z,10843
2023-12-16T10:57:40.444Z,10650
2023-12-16T10:58:40.453Z,9256
2023-12-16T10:59:40.443Z,9238
2023-12-16T11:00:40.449Z,7700
2023-12-16T11:01:40.529Z,8056
2023-12-16T11:02:40.453Z,8670
2023-12-16T11:03:40.430Z,11433
2023-12-16T11:04:40.459Z,8414
2023-12-16T11:05:40.472Z,7887
2023-12-16T11:06:40.420Z,7719
2023-12-16T11:07:40.727Z,7654
2023-12-16T11:08:40.416Z,8126
2023-12-16T11:09:40.431Z,8423
2023-12-16T11:10:40.512Z,8421
2023-12-16T11:11:40.417Z,8421
2023-12-16T11:12:40.433Z,8342
2023-12-16T11:13:40.430Z,8111
2023-12-16T11:14:40.427Z,8224
2023-12-16T11:15:40.431Z,7973
2023-12-16T11:16:40.414Z,7997
2023-12-16T11:17:40.656Z,8028
2023-12-16T11:18:40.426Z,7855
2023-12-16T11:19:40.441Z,7855
2023-12-16T11:20:40.419Z,7855
2023-12-16T11:21:40.423Z,7855
2023-12-16T11:22:40.445Z,7855
2023-12-16T11:23:40.414Z,7855
2023-12-16T11:24:40.433Z,7855
2023-12-16T11:25:40.476Z,7855
2023-12-16T11:26:40.411Z,7855
2023-12-16T11:27:40.717Z,7855
2023-12-16T11:28:40.474Z,7855
2023-12-16T11:29:40.411Z,8248
2023-12-16T11:30:40.440Z,9280
2023-12-16T11:31:40.495Z,12323
2023-12-16T11:32:40.717Z,12323
2023-12-16T11:33:40.492Z,12323
2023-12-16T11:34:40.481Z,12323
2023-12-16T11:35:40.420Z,12323
2023-12-16T11:36:40.428Z,15781
2023-12-16T11:37:40.465Z,16391
2023-12-16T11:38:40.436Z,15646
2023-12-16T11:39:40.439Z,13436
2023-12-16T11:40:40.471Z,14577
2023-12-16T11:41:40.408Z,15228
2023-12-16T11:42:40.648Z,16251
2023-12-16T11:43:40.434Z,16351
2023-12-16T11:44:40.431Z,15366
2023-12-16T11:45:40.466Z,14264
2023-12-16T11:46:40.494Z,14223
2023-12-16T11:47:40.455Z,6731
2023-12-16T11:48:40.426Z,5647
2023-12-16T11:49:40.429Z,5647
2023-12-16T11:50:40.425Z,4641
2023-12-16T11:51:40.597Z,4025
2023-12-16T11:52:40.679Z,4025
2023-12-16T11:53:40.421Z,3537
2023-12-16T11:54:40.421Z,3253
2023-12-16T11:55:40.597Z,3234
2023-12-16T11:56:40.436Z,3181
2023-12-16T11:57:40.427Z,3293
2023-12-16T11:58:40.458Z,3437
2023-12-16T11:59:40.433Z,3432
2023-12-16T12:00:40.438Z,3321
2023-12-16T12:01:40.564Z,3444
2023-12-16T12:02:40.604Z,3691
2023-12-16T12:03:40.423Z,3778
2023-12-16T12:04:40.468Z,3739
2023-12-16T12:05:40.550Z,3769
2023-12-16T12:06:40.424Z,3946
2023-12-16T12:07:40.492Z,4064
2023-12-16T12:08:40.422Z,4110
2023-12-16T12:09:40.435Z,4110
2023-12-16T12:10:40.583Z,4156
2023-12-16T12:11:40.425Z,4488
2023-12-16T12:12:40.656Z,4635
2023-12-16T12:13:40.446Z,5295
2023-12-16T12:14:40.430Z,5667
2023-12-16T12:15:40.431Z,7267
2023-12-16T12:16:40.496Z,5833
2023-12-16T12:17:40.582Z,5747
2023-12-16T12:18:40.529Z,7680
2023-12-16T12:19:40.431Z,7057
2023-12-16T12:20:40.419Z,7133
2023-12-16T12:21:40.422Z,5962
2023-12-16T12:22:40.840Z,6559
2023-12-16T12:23:40.456Z,6366
2023-12-16T12:24:40.424Z,6253
2023-12-16T12:25:40.468Z,6296
2023-12-16T12:26:40.434Z,6482
2023-12-16T12:27:40.671Z,6688
2023-12-16T12:28:40.425Z,6292
2023-12-16T12:29:40.474Z,5971
2023-12-16T12:30:40.462Z,6023
2023-12-16T12:31:40.418Z,6519
2023-12-16T12:32:40.503Z,6364
2023-12-16T12:33:40.539Z,6746
2023-12-16T12:34:40.471Z,6779
2023-12-16T12:35:40.442Z,6572
2023-12-16T12:36:40.430Z,6134
2023-12-16T12:37:40.602Z,6864
2023-12-16T12:38:40.549Z,7995
2023-12-16T12:39:40.423Z,6370
2023-12-16T12:40:40.434Z,6370
2023-12-16T12:41:40.439Z,7229
2023-12-16T12:42:40.416Z,7459
2023-12-16T12:43:40.434Z,7315
2023-12-16T12:44:40.453Z,8996
2023-12-16T12:45:40.430Z,5544
2023-12-16T12:46:40.431Z,6572
2023-12-16T12:47:40.689Z,6572
2023-12-16T12:48:40.616Z,4913
2023-12-16T12:49:40.452Z,4998
2023-12-16T12:50:40.434Z,5542
2023-12-16T12:51:40.429Z,7000
2023-12-16T12:53:17.526Z,7000
2023-12-16T12:53:40.733Z,5710
2023-12-16T12:54:40.424Z,4773
2023-12-16T12:55:40.445Z,4445
2023-12-16T12:56:40.461Z,4248
2023-12-16T12:57:40.564Z,4314
2023-12-16T12:58:40.423Z,4314
2023-12-16T12:59:59.659Z,4923
2023-12-16T13:00:40.515Z,4490
2023-12-16T13:01:40.441Z,4185
2023-12-16T13:02:40.460Z,4462
2023-12-16T13:03:40.443Z,4361
2023-12-16T13:04:47.418Z,4342
2023-12-16T13:05:40.499Z,4217
2023-12-16T13:06:40.476Z,3907
2023-12-16T13:07:40.632Z,3570
2023-12-16T13:08:40.533Z,3570
2023-12-16T13:09:40.428Z,3334
2023-12-16T13:10:40.429Z,3334
2023-12-16T13:11:40.428Z,3155
2023-12-16T13:12:40.416Z,3338
2023-12-16T13:13:40.431Z,3432
2023-12-16T13:14:40.444Z,3496
2023-12-16T13:15:53.837Z,3577
2023-12-16T13:16:40.435Z,3680
2023-12-16T13:17:40.847Z,3832
2023-12-16T13:18:40.613Z,3702
2023-12-16T13:19:40.494Z,3708
2023-12-16T13:20:40.451Z,3627
2023-12-16T13:21:40.443Z,3306
2023-12-16T13:22:40.428Z,3306
2023-12-16T13:23:40.521Z,2057
2023-12-16T13:24:40.425Z,1909
2023-12-16T13:25:40.461Z,1627
2023-12-16T13:26:40.434Z,1389
2023-12-16T13:27:40.671Z,1255
2023-12-16T13:28:40.419Z,1179
2023-12-16T13:29:40.438Z,1113
2023-12-16T13:30:40.427Z,1032
2023-12-16T13:31:40.417Z,940
2023-12-16T13:32:40.571Z,936
2023-12-16T13:33:40.493Z,1041
2023-12-16T13:34:40.525Z,1109
2023-12-16T13:35:40.624Z,987
2023-12-16T13:36:50.115Z,836
2023-12-16T13:37:40.692Z,740
2023-12-16T13:38:40.511Z,722
2023-12-16T13:39:40.427Z,737
2023-12-16T13:40:46.269Z,720
2023-12-16T13:41:40.459Z,665
2023-12-16T13:42:40.426Z,665
2023-12-16T13:43:40.424Z,672
2023-12-16T13:44:40.444Z,645
2023-12-16T13:45:40.436Z,635
2023-12-16T13:46:40.416Z,639
2023-12-16T13:47:40.717Z,637
2023-12-16T13:48:40.571Z,656
2023-12-16T13:49:40.436Z,648
2023-12-16T13:50:40.448Z,630
2023-12-16T13:51:40.447Z,595
2023-12-16T13:52:40.437Z,597
2023-12-16T13:53:40.473Z,595
2023-12-16T13:54:40.417Z,573
2023-12-16T13:55:40.439Z,589
2023-12-16T13:56:40.463Z,595
2023-12-16T13:57:40.647Z,610
2023-12-16T13:58:40.425Z,615
2023-12-16T13:59:40.442Z,621